Tina-c — 2APY2 — position and weather

sailwx.info

Track history (hours):
 
Tides and Currents Weather Stations Pressure Air Temp Water Temp Dewpoint Dewpoint Depression Visibility Wind Speed Wind Dir Waves Ship Positions

Tina-c

Last reported at 2015-Aug-28 18:20 UTC. Time now 2015-Aug-29 06:12 UTC.
Position N 50°27' W 001°17'.

Length 99 m; draft 6.4 m.

Type: Cargo ship. MMSI: 235061987.

Date/timePositionNaut miles runAvg speedWind from/ knotsBaromVisibWave heightAir tempDewpointWater temp
2015-Aug-28 18:20N 50°27' W 001°17'6 7.2
2015-Aug-28 17:32N 50°30' W 001°09'8 7.9
2015-Aug-28 16:34N 50°35' W 001°01'8 8.2
2015-Aug-28 15:34N 50°44' W 001°03'1110.6
2015-Aug-28 14:32N 50°47' W 001°19'5 0.1
2015-Aug-26 20:33N 50°52' W 001°22'7 6.8
2015-Aug-26 19:33N 50°47' W 001°13'7 7.5
2015-Aug-26 18:33N 50°44' W 001°03'6 5.7
2015-Aug-26 17:33N 50°41' W 000°55'6 5.7
2015-Aug-26 16:33N 50°36' W 000°59'67 6.6
2015-Aug-26 06:29N 50°15' W 002°39'7 8.0
2015-Aug-26 05:33N 50°13' W 002°50'9 9.1
2015-Aug-26 04:33N 50°11' W 003°04'9 9.3
2015-Aug-26 03:33N 50°09' W 003°18'91 5.2
2015-Aug-25 10:09N 50°35' W 005°34'10711.1
2015-Aug-25 00:31N 51°27' W 003°06'8 0.2
2015-Aug-23 11:26N 51°34' W 002°59'1 0.7
2015-Aug-23 10:33N 51°33' W 002°59'7 6.6
2015-Aug-23 09:32N 51°27' W 003°03'93 7.8
2015-Aug-22 21:33N 50°44' W 005°15'1010.0
2015-Aug-22 20:33N 50°37' W 005°26'1010.3
2015-Aug-22 19:33N 50°30' W 005°38'50510.7
2015-Aug-20 20:24N 42°33' W 009°37'9 9.8
2015-Aug-20 19:32N 42°24' W 009°34'1010.0
2015-Aug-20 18:33N 42°15' W 009°30'10 9.9
2015-Aug-20 17:33N 42°06' W 009°26'1010.0
2015-Aug-20 16:33N 41°56' W 009°21'1010.2
2015-Aug-20 15:33N 41°47' W 009°16'10 9.9
2015-Aug-20 14:33N 41°37' W 009°13'1010.0
2015-Aug-20 13:32N 41°28' W 009°09'1010.2
2015-Aug-20 12:33N 41°18' W 009°05'1110.5
2015-Aug-20 11:33N 41°08' W 009°01'1110.5
2015-Aug-20 10:33N 40°58' W 008°57'1110.5
2015-Aug-20 09:33N 40°48' W 008°52'1110.3
2015-Aug-20 08:32N 40°38' W 008°46'  
Track history (hours):
 
Tides and Currents Weather Stations Pressure Air Temp Water Temp Dewpoint Dewpoint Depression Visibility Wind Speed Wind Dir Waves Ship Positions

Tina-c

Last reported at 2015-Aug-28 18:20 UTC. Time now 2015-Aug-29 06:12 UTC.
Position N 50°27' W 001°17'.

Length 99 m; draft 6.4 m.

Type: Cargo ship. MMSI: 235061987.

Date/timePositionNaut miles runAvg speedWind from/ knotsBaromVisibWave heightAir tempDewpointWater temp
2015-Aug-28 18:20N 50°27' W 001°17'6 7.2
2015-Aug-28 17:32N 50°30' W 001°09'8 7.9
2015-Aug-28 16:34N 50°35' W 001°01'8 8.2
2015-Aug-28 15:34N 50°44' W 001°03'1110.6
2015-Aug-28 14:32N 50°47' W 001°19'5 0.1
2015-Aug-26 20:33N 50°52' W 001°22'7 6.8
2015-Aug-26 19:33N 50°47' W 001°13'7 7.5
2015-Aug-26 18:33N 50°44' W 001°03'6 5.7
2015-Aug-26 17:33N 50°41' W 000°55'6 5.7
2015-Aug-26 16:33N 50°36' W 000°59'67 6.6
2015-Aug-26 06:29N 50°15' W 002°39'7 8.0
2015-Aug-26 05:33N 50°13' W 002°50'9 9.1
2015-Aug-26 04:33N 50°11' W 003°04'9 9.3
2015-Aug-26 03:33N 50°09' W 003°18'91 5.2
2015-Aug-25 10:09N 50°35' W 005°34'10711.1
2015-Aug-25 00:31N 51°27' W 003°06'8 0.2
2015-Aug-23 11:26N 51°34' W 002°59'1 0.7
2015-Aug-23 10:33N 51°33' W 002°59'7 6.6
2015-Aug-23 09:32N 51°27' W 003°03'93 7.8
2015-Aug-22 21:33N 50°44' W 005°15'1010.0
2015-Aug-22 20:33N 50°37' W 005°26'1010.3
2015-Aug-22 19:33N 50°30' W 005°38'50510.7
2015-Aug-20 20:24N 42°33' W 009°37'9 9.8
2015-Aug-20 19:32N 42°24' W 009°34'1010.0
2015-Aug-20 18:33N 42°15' W 009°30'10 9.9
2015-Aug-20 17:33N 42°06' W 009°26'1010.0
2015-Aug-20 16:33N 41°56' W 009°21'1010.2
2015-Aug-20 15:33N 41°47' W 009°16'10 9.9
2015-Aug-20 14:33N 41°37' W 009°13'1010.0
2015-Aug-20 13:32N 41°28' W 009°09'1010.2
2015-Aug-20 12:33N 41°18' W 009°05'1110.5
2015-Aug-20 11:33N 41°08' W 009°01'1110.5
2015-Aug-20 10:33N 40°58' W 008°57'1110.5
2015-Aug-20 09:33N 40°48' W 008°52'1110.3
2015-Aug-20 08:32N 40°38' W 008°46'  

Dump ship's entire track history